Portada
METAR-TAF:

METAR-TAF

Aeropuertos :

Qaisumah, Arabia Saudita

latitud: 28-19N, longitud: 046-07E, altitud: 358 m

Observación

El informe se hizo hace 59 minutos, a las 12:00 UTC
Viento 4 kt del norte-noreste
Temperatura 20°C
Humedad 32%
Presión 1018 hPa
Visibilidad 10 km o más
sin nubes por debajo de 1500 m y sin presencia de cumulonimbus.

METAR: OEPA 271200Z 03004KT CAVOK 20/03 Q1018 NOSIG

Hora: 15:59 (12:59 UTC)

Pronóstico

El informe se hizo hace 1 hora y 59 minutos, a las 11:00 UTC
Pronóstico válido del 27 a las 12 UTC al 28 a las 18 UTC
Viento 10 kt del norte
Visibilidad 10 km o más
sin nubes por debajo de 1500 m y sin presencia de cumulonimbus.
Evolucionando progresivamente
del 27 a las 18 UTC al 27 a las 20 UTC
Viento 3 kt con dirección variable

TAF: OEPA 271100Z 2712/2818 35010KT CAVOK BECMG 2718/2720 VRB03KT

Observaciones y pronósticos meteorológicos de más de 4000 aeropuertos (mensajes METAR y TAF).

Los puntos amarillos y rojos representan las estaciones disponibles.

Ponga el ratón en el punto deseado para ver el nombre de la estación.

Haga clic para ver las observaciones y los pronósticos meteorológicos.

Para cambiar el mapa : haga clic en los botones verdes con una cruz de color negro para hacer un zoom, en el botón verde con un guión para alejar o en las flechas verdes para mapas adyacentes.


METAR-TAF: